Flight Track Log - Related Links

Times and Time Zones

All times are in EDT time to prevent confusion due to time zone crossing. See the SKW5564 flight status page for this flight to view local times or setup timezone preferences in your user account.

Time Position Orientation Groundspeed Altitude Reporting Facility
EDT Latitude Longitude Course Direction KTS MPH feet Rate Location/Type
Mon 03:59:00 PM 41.0135 -112.0704 108° East  Level FlightAware Approximate
Mon 04:00:00 PM 40.9726 -111.9069 103° East  Level FlightAware Approximate
Mon 04:01:00 PM 40.9421 -111.7391 103° East  Level FlightAware Approximate
Mon 04:02:00 PM 40.9167 -111.5705 90° East  Level FlightAware Approximate
Mon 04:03:00 PM 40.9000 -111.4004 90° East  Level FlightAware Approximate
Mon 04:04:00 PM 40.8778 -111.2305 98° East  Level FlightAware Approximate
Mon 04:05:00 PM 40.8599 -111.0597 98° East  Level FlightAware Approximate
Mon 04:06:00 PM 40.8390 -110.8896 101° East  Level FlightAware Approximate
Mon 04:07:00 PM 40.8161 -110.7200 100° East  Level FlightAware Approximate
Mon 04:08:00 PM 40.7939 -110.5503 99° East  Level FlightAware Approximate
Mon 04:09:00 PM 40.7727 -110.3803 99° East  Level FlightAware Approximate
Mon 04:10:00 PM 40.7513 -110.2105 99° East  Level FlightAware Approximate
Mon 04:11:00 PM 40.7340 -110.0400 97° East  Level FlightAware Approximate
Mon 04:12:00 PM 40.7248 -109.8684 94° East  Level FlightAware Approximate
Mon 04:13:00 PM 40.7149 -109.6969 97° East  Level FlightAware Approximate
Mon 04:14:00 PM 40.6995 -109.5261 97° East  Level FlightAware Approximate
Mon 04:15:00 PM 40.6838 -109.3554 97° East  Level FlightAware Approximate
Mon 04:16:00 PM 40.6723 -109.1841 95° East  Level FlightAware Approximate
Mon 04:17:00 PM 40.6601 -109.0130 96° East  Level FlightAware Approximate
Mon 04:18:00 PM 40.6469 -108.8420 96° East  Level FlightAware Approximate
Mon 04:19:00 PM 40.6335 -108.6711 96° East  Level FlightAware Approximate
Mon 04:20:00 PM 40.6199 -108.5003 96° East  Level FlightAware Approximate
Mon 04:21:00 PM 40.6060 -108.3295 96° East  Level FlightAware Approximate
Mon 04:22:00 PM 40.5918 -108.1588 96° East  Level FlightAware Approximate
Mon 04:23:00 PM 40.5774 -107.9882 96° East  Level FlightAware Approximate
Mon 04:24:00 PM 40.5627 -107.8176 96° East  Level FlightAware Approximate
Mon 04:25:00 PM 40.5478 -107.6471 97° East  Level FlightAware Approximate
Mon 04:26:00 PM 40.5327 -107.4767 97° East  Level FlightAware Approximate
Mon 04:27:00 PM 40.5173 -107.3064 97° East  Level FlightAware Approximate
Mon 04:28:00 PM 40.5056 -107.1356 95° East  Level FlightAware Approximate
Mon 04:29:00 PM 40.4938 -106.9648 95° East  Level FlightAware Approximate
Mon 04:30:00 PM 40.4818 -106.7941 95° East  Level FlightAware Approximate
Mon 04:31:00 PM 40.4696 -106.6235 95° East  Level FlightAware Approximate
Mon 04:32:00 PM 40.4667 -106.4523 90° East  Level FlightAware Approximate
Mon 04:33:00 PM 40.4487 -106.2918 94° East  Level FlightAware Approximate
Mon 04:34:00 PM 40.4398 -106.1209 94° East  Level FlightAware Approximate
Mon 04:35:00 PM 40.4292 -105.9503 99° East  Level FlightAware Approximate
Mon 04:36:00 PM 40.4081 -105.7813 99° East  Level FlightAware Approximate
Mon 04:37:00 PM 40.3761 -105.6182 98° East  Level FlightAware Approximate
Mon 04:38:00 PM 40.3502 -105.4508 105° East  Level FlightAware Approximate
Mon 04:39:00 PM 40.2776 -105.3127 128° Southeast  Level FlightAware Approximate
Mon 04:40:00 PM 40.1990 -105.1823 143° Southeast  Level FlightAware Approximate
Mon 04:41:00 PM 40.1110 -105.0571 128° Southeast  Level FlightAware Approximate
Mon 04:42:00 PM 40.0305 -104.9230 128° Southeast  Level FlightAware Approximate
Mon 04:43:00 PM 39.9441 -104.8000 180° South  Level FlightAware Approximate
Mon 04:44:00 PM 39.8138 -104.8000 180° South  Level FlightAware Approximate
Mon 04:45:00 PM 39.8617 -104.6732 180° South  Level Estimated
Mon 04:46:00 PM 39.8617 -104.6732 185° South  Level Estimated
Mon 04:47:00 PM 39.8617 -104.6732 14° North  Level Estimated
Mon 04:48:00 PM 39.8617 -104.6732 193° South  Level Estimated
Mon 04:49:00 PM 39.8617 -104.6732 18° North  Level Estimated
Mon 04:50:00 PM 39.8617 -104.6732 North  Level Estimated
Mon 04:51:00 PM 39.8617 -104.6732 North  Level Estimated
Mon 04:52:00 PM 39.8617 -104.6732 North  Level Estimated
Mon 04:53:00 PM 39.8617 -104.6732 North  Level Estimated
Mon 04:54:00 PM 39.8617 -104.6732 North  Level Estimated
Mon 04:55:00 PM 39.8617 -104.6732 North  Level Estimated
Mon 04:56:00 PM 39.8617 -104.6732 North  Level Estimated
Mon 04:57:00 PM 39.8617 -104.6732 North  Level Estimated
Mon 04:58:00 PM 39.8617 -104.6732 North  Level Estimated

Login

Don't have an account? Register now (free) for customized features, flight alerts, and more!